Corinthiakos — A8UL2 — position and weather

sailwx.info

Track history (hours):
 
Tides and Currents Weather Stations Pressure Air Temp Water Temp Dewpoint Dewpoint Depression Visibility Wind Speed Wind Dir Waves Ship Positions

Corinthiakos

Last reported at 2015-Sep-03 01:27 UTC. Time now 2015-Sep-03 17:17 UTC.
Position N 21°57' E 114°25'.

Length 262 m; draft 9.8 m.

Type: Cargo ship. MMSI: 636014516.

Date/timePositionNaut miles runAvg speedWind from/ knotsBaromVisibWave heightAir tempDewpointWater temp
2015-Sep-03 01:27N 21°57' E 114°25'1213.9
2015-Sep-03 00:33N 22°07' E 114°17'1312.7
2015-Sep-02 23:31N 22°16' E 114°06'12 9.7
2015-Sep-02 22:17N 22°22' E 113°55'6 1.4
2015-Sep-02 18:19N 22°27' E 113°53'0 0.0
2015-Sep-02 13:31N 22°27' E 113°53'0 0.0
2015-Sep-02 09:31N 22°27' E 113°53'0 0.1
2015-Sep-02 08:31N 22°27' E 113°53'0 0.0
2015-Sep-02 07:25N 22°27' E 113°53'0 0.0
2015-Sep-02 06:26N 22°27' E 113°53'4 4.4
2015-Sep-02 05:33N 22°23' E 113°54'1211.7
2015-Sep-02 04:33N 22°18' E 114°06'0 0.3
2015-Sep-02 03:31N 22°18' E 114°05'0 0.1
2015-Sep-02 02:28N 22°18' E 114°05'0 0.1
2015-Sep-02 01:28N 22°18' E 114°05'1 1.0
2015-Sep-02 00:33N 22°19' E 114°05'2 2.0
2015-Sep-01 23:30N 22°20' E 114°07'0 0.0
2015-Sep-01 22:33N 22°20' E 114°07'0 0.0
2015-Sep-01 21:30N 22°20' E 114°07'0 0.0
2015-Sep-01 20:33N 22°20' E 114°07'0 0.0
2015-Sep-01 19:33N 22°20' E 114°07'0 0.0
2015-Sep-01 18:30N 22°20' E 114°07'0 0.0
2015-Sep-01 17:33N 22°20' E 114°07'0 0.0
2015-Sep-01 16:33N 22°20' E 114°07'0 0.0
2015-Sep-01 15:33N 22°20' E 114°07'0 0.0
2015-Sep-01 14:33N 22°20' E 114°07'0 0.0
2015-Sep-01 13:30N 22°20' E 114°07'2 2.5
2015-Sep-01 12:33N 22°19' E 114°06'11 9.3
2015-Sep-01 11:25N 22°10' E 114°13'8 8.7
2015-Sep-01 10:33N 22°08' E 114°20'1613.8
2015-Sep-01 09:23N 22°08' E 114°38'  
2015-Aug-26 05:32N 01°18' E 104°20'1818.0
2015-Aug-26 04:33N 01°15' E 104°03'1211.5
2015-Aug-26 03:33N 01°15' E 103°51'1 1.0
2015-Aug-26 02:31N 01°16' E 103°51'0 0.1
2015-Aug-26 01:28N 01°16' E 103°51'0 0.0
2015-Aug-26 00:31N 01°16' E 103°51'0 0.0
2015-Aug-25 23:31N 01°16' E 103°51'0 0.0
2015-Aug-25 22:28N 01°16' E 103°51'0 0.0
2015-Aug-25 21:31N 01°16' E 103°51'0 0.0
2015-Aug-25 20:31N 01°16' E 103°51'0 0.0
2015-Aug-25 19:28N 01°16' E 103°51'0 0.0
2015-Aug-25 18:31N 01°16' E 103°51'0 0.0
2015-Aug-25 17:28N 01°16' E 103°51'0 0.0
2015-Aug-25 16:29N 01°16' E 103°51'2 2.2
2015-Aug-25 15:33N 01°15' E 103°52'2 1.9
2015-Aug-25 14:33N 01°14' E 103°54'4 4.2
2015-Aug-25 13:33N 01°11' E 103°51'8 8.3
2015-Aug-25 12:33N 01°06' E 103°44'8 8.3
2015-Aug-25 11:33N 01°04' E 103°36'179 7.8
2015-Aug-24 12:31N 03°02' E 101°21'0 0.0
2015-Aug-24 11:31N 03°02' E 101°21'0 0.0
2015-Aug-24 10:28N 03°02' E 101°21'31 5.8
2015-Aug-24 05:11N 03°23' E 100°58'  
Track history (hours):
 
Tides and Currents Weather Stations Pressure Air Temp Water Temp Dewpoint Dewpoint Depression Visibility Wind Speed Wind Dir Waves Ship Positions

Corinthiakos

Last reported at 2015-Sep-03 01:27 UTC. Time now 2015-Sep-03 17:17 UTC.
Position N 21°57' E 114°25'.

Length 262 m; draft 9.8 m.

Type: Cargo ship. MMSI: 636014516.

Date/timePositionNaut miles runAvg speedWind from/ knotsBaromVisibWave heightAir tempDewpointWater temp
2015-Sep-03 01:27N 21°57' E 114°25'1213.9
2015-Sep-03 00:33N 22°07' E 114°17'1312.7
2015-Sep-02 23:31N 22°16' E 114°06'12 9.7
2015-Sep-02 22:17N 22°22' E 113°55'6 1.4
2015-Sep-02 18:19N 22°27' E 113°53'0 0.0
2015-Sep-02 13:31N 22°27' E 113°53'0 0.0
2015-Sep-02 09:31N 22°27' E 113°53'0 0.1
2015-Sep-02 08:31N 22°27' E 113°53'0 0.0
2015-Sep-02 07:25N 22°27' E 113°53'0 0.0
2015-Sep-02 06:26N 22°27' E 113°53'4 4.4
2015-Sep-02 05:33N 22°23' E 113°54'1211.7
2015-Sep-02 04:33N 22°18' E 114°06'0 0.3
2015-Sep-02 03:31N 22°18' E 114°05'0 0.1
2015-Sep-02 02:28N 22°18' E 114°05'0 0.1
2015-Sep-02 01:28N 22°18' E 114°05'1 1.0
2015-Sep-02 00:33N 22°19' E 114°05'2 2.0
2015-Sep-01 23:30N 22°20' E 114°07'0 0.0
2015-Sep-01 22:33N 22°20' E 114°07'0 0.0
2015-Sep-01 21:30N 22°20' E 114°07'0 0.0
2015-Sep-01 20:33N 22°20' E 114°07'0 0.0
2015-Sep-01 19:33N 22°20' E 114°07'0 0.0
2015-Sep-01 18:30N 22°20' E 114°07'0 0.0
2015-Sep-01 17:33N 22°20' E 114°07'0 0.0
2015-Sep-01 16:33N 22°20' E 114°07'0 0.0
2015-Sep-01 15:33N 22°20' E 114°07'0 0.0
2015-Sep-01 14:33N 22°20' E 114°07'0 0.0
2015-Sep-01 13:30N 22°20' E 114°07'2 2.5
2015-Sep-01 12:33N 22°19' E 114°06'11 9.3
2015-Sep-01 11:25N 22°10' E 114°13'8 8.7
2015-Sep-01 10:33N 22°08' E 114°20'1613.8
2015-Sep-01 09:23N 22°08' E 114°38'  
2015-Aug-26 05:32N 01°18' E 104°20'1818.0
2015-Aug-26 04:33N 01°15' E 104°03'1211.5
2015-Aug-26 03:33N 01°15' E 103°51'1 1.0
2015-Aug-26 02:31N 01°16' E 103°51'0 0.1
2015-Aug-26 01:28N 01°16' E 103°51'0 0.0
2015-Aug-26 00:31N 01°16' E 103°51'0 0.0
2015-Aug-25 23:31N 01°16' E 103°51'0 0.0
2015-Aug-25 22:28N 01°16' E 103°51'0 0.0
2015-Aug-25 21:31N 01°16' E 103°51'0 0.0
2015-Aug-25 20:31N 01°16' E 103°51'0 0.0
2015-Aug-25 19:28N 01°16' E 103°51'0 0.0
2015-Aug-25 18:31N 01°16' E 103°51'0 0.0
2015-Aug-25 17:28N 01°16' E 103°51'0 0.0
2015-Aug-25 16:29N 01°16' E 103°51'2 2.2
2015-Aug-25 15:33N 01°15' E 103°52'2 1.9
2015-Aug-25 14:33N 01°14' E 103°54'4 4.2
2015-Aug-25 13:33N 01°11' E 103°51'8 8.3
2015-Aug-25 12:33N 01°06' E 103°44'8 8.3
2015-Aug-25 11:33N 01°04' E 103°36'179 7.8
2015-Aug-24 12:31N 03°02' E 101°21'0 0.0
2015-Aug-24 11:31N 03°02' E 101°21'0 0.0
2015-Aug-24 10:28N 03°02' E 101°21'31 5.8
2015-Aug-24 05:11N 03°23' E 100°58'  

Dump ship's entire track history